Time;durP1;ratioP1;P1;durP2;ratioP2;P2;SDS_P1;SDS_P2;PMS_P1;PMS_P2;Temp;Humidity;BMP_temperature;BMP_pressure;BME280_temperature;BME280_humidity;BME280_pressure;Samples;Min_cycle;Max_cycle;Signal;HPM_P1;HPM_P2
2023/02/24 00:00:37;;;;;;;7.97;3.00;;;;;;;;;;1051031;28;20026;-51
2023/02/24 00:01:12;;;;;;;5.68;3.15;;;;;;;;;;1050979;28;20431;-51
2023/02/24 00:01:50;;;;;;;7.30;3.05;;;;;;;;;;1051115;28;20260;-51
2023/02/24 00:02:21;;;;;;;8.40;3.50;;;;;;;;;;1051073;28;20012;-51
2023/02/24 00:02:52;;;;;;;8.80;4.00;;;;;;;;;;1051254;28;20028;-51
2023/02/24 00:03:23;;;;;;;11.60;4.10;;;;;;;;;;1051422;28;20823;-49
2023/02/24 00:03:59;;;;;;;7.05;2.95;;;;;;;;;;1051476;28;20262;-52
2023/02/24 00:04:31;;;;;;;6.93;3.50;;;;;;;;;;1051468;28;20016;-52
2023/02/24 00:05:02;;;;;;;4.63;2.75;;;;;;;;;;1051448;28;20024;-51
2023/02/24 00:05:38;;;;;;;7.80;3.53;;;;;;;;;;1051574;28;20039;-52
2023/02/24 00:06:10;;;;;;;8.05;3.20;;;;;;;;;;1047400;28;20043;-52
2023/02/24 00:06:43;;;;;;;5.43;2.95;;;;;;;;;;1047284;28;20490;-51
2023/02/24 00:07:15;;;;;;;8.25;3.10;;;;;;;;;;1047419;28;20023;-52
2023/02/24 00:07:46;;;;;;;7.70;3.33;;;;;;;;;;1047193;28;20029;-51
2023/02/24 00:08:17;;;;;;;9.17;4.13;;;;;;;;;;1047849;28;20047;-51
2023/02/24 00:08:48;;;;;;;8.23;3.17;;;;;;;;;;1051288;28;20281;-52
2023/02/24 00:09:21;;;;;;;8.57;3.20;;;;;;;;;;1051282;28;20024;-51
2023/02/24 00:09:52;;;;;;;7.03;3.60;;;;;;;;;;1051234;28;20091;-51
2023/02/24 00:10:23;;;;;;;8.27;3.27;;;;;;;;;;1051414;28;20023;-51
2023/02/24 00:10:54;;;;;;;7.45;3.42;;;;;;;;;;1051294;28;20270;-51
2023/02/24 00:11:26;;;;;;;5.37;3.17;;;;;;;;;;1051387;28;20023;-51
2023/02/24 00:12:07;;;;;;;7.60;3.45;;;;;;;;;;1051222;28;20357;-51
2023/02/24 00:12:38;;;;;;;6.43;3.33;;;;;;;;;;1051243;28;20032;-50
2023/02/24 00:13:10;;;;;;;6.73;3.33;;;;;;;;;;1051429;28;20063;-50
2023/02/24 00:13:45;;;;;;;9.20;3.45;;;;;;;;;;1051301;28;20337;-49
2023/02/24 00:14:17;;;;;;;6.88;3.05;;;;;;;;;;1051382;28;20573;-51
2023/02/24 00:14:48;;;;;;;7.50;3.50;;;;;;;;;;1051441;28;20471;-51
2023/02/24 00:15:19;;;;;;;9.93;3.63;;;;;;;;;;1051359;28;20860;-51
2023/02/24 00:16:03;;;;;;;7.82;3.22;;;;;;;;;;1051111;28;20016;-52
2023/02/24 00:16:36;;;;;;;5.97;3.08;;;;;;;;;;1051460;28;20158;-51
2023/02/24 00:17:07;;;;;;;7.22;2.50;;;;;;;;;;1051119;28;20012;-51
2023/02/24 00:17:38;;;;;;;11.13;3.83;;;;;;;;;;1051135;28;20024;-52
2023/02/24 00:18:09;;;;;;;7.60;3.20;;;;;;;;;;1051325;28;20020;-50
2023/02/24 00:18:40;;;;;;;6.07;3.03;;;;;;;;;;1051391;28;20612;-52
2023/02/24 00:19:13;;;;;;;8.90;3.63;;;;;;;;;;1051224;28;20028;-52
2023/02/24 00:19:45;;;;;;;8.13;3.38;;;;;;;;;;1051314;28;20036;-52
2023/02/24 00:20:17;;;;;;;6.75;3.40;;;;;;;;;;1051457;28;20588;-51
2023/02/24 00:20:48;;;;;;;6.43;2.97;;;;;;;;;;1050847;28;20028;-51
2023/02/24 00:21:19;;;;;;;6.73;3.20;;;;;;;;;;1051221;28;20024;-53
2023/02/24 00:21:53;;;;;;;8.27;3.33;;;;;;;;;;1051407;28;20266;-53
2023/02/24 00:22:24;;;;;;;6.60;2.85;;;;;;;;;;1051234;28;20094;-52
2023/02/24 00:22:56;;;;;;;8.13;3.40;;;;;;;;;;1051102;28;20061;-53
2023/02/24 00:23:27;;;;;;;7.70;3.22;;;;;;;;;;1047252;28;20039;-51
2023/02/24 00:23:58;;;;;;;7.17;3.43;;;;;;;;;;1047223;28;20066;-51
2023/02/24 00:24:29;;;;;;;4.50;2.75;;;;;;;;;;1048742;28;20394;-51
2023/02/24 00:25:02;;;;;;;5.30;2.97;;;;;;;;;;1050670;28;20106;-51
2023/02/24 00:25:33;;;;;;;7.03;3.45;;;;;;;;;;1051130;28;20016;-51
2023/02/24 00:26:05;;;;;;;6.07;3.00;;;;;;;;;;1047898;28;20373;-52
2023/02/24 00:26:37;;;;;;;6.50;3.10;;;;;;;;;;1051492;28;20433;-50
2023/02/24 00:27:10;;;;;;;7.03;2.90;;;;;;;;;;1050737;28;20028;-53
2023/02/24 00:27:41;;;;;;;6.20;2.92;;;;;;;;;;1051249;28;20497;-53
2023/02/24 00:28:13;;;;;;;6.20;2.88;;;;;;;;;;1051360;28;20024;-52
2023/02/24 00:28:44;;;;;;;6.65;3.05;;;;;;;;;;1047428;28;20031;-51
2023/02/24 00:29:15;;;;;;;7.25;2.85;;;;;;;;;;1047401;28;20108;-51
2023/02/24 00:29:46;;;;;;;7.20;2.90;;;;;;;;;;1050164;28;20042;-51
2023/02/24 00:30:17;;;;;;;7.43;3.10;;;;;;;;;;1051495;28;20261;-51
2023/02/24 00:30:48;;;;;;;7.72;3.35;;;;;;;;;;1051354;28;20032;-51
2023/02/24 00:31:19;;;;;;;6.80;3.03;;;;;;;;;;1051216;28;20028;-50
2023/02/24 00:31:55;;;;;;;7.05;3.28;;;;;;;;;;1051331;28;20783;-50
2023/02/24 00:32:26;;;;;;;6.70;3.00;;;;;;;;;;1051192;28;20028;-52
2023/02/24 00:33:00;;;;;;;5.87;3.33;;;;;;;;;;1051047;28;20151;-52
2023/02/24 00:33:31;;;;;;;6.50;3.85;;;;;;;;;;1051317;28;20273;-51
2023/02/24 00:34:02;;;;;;;7.00;3.08;;;;;;;;;;1051215;28;20029;-51
2023/02/24 00:34:35;;;;;;;5.47;3.03;;;;;;;;;;1051258;28;20109;-51
2023/02/24 00:35:07;;;;;;;5.60;2.83;;;;;;;;;;1051268;28;20331;-52
2023/02/24 00:35:38;;;;;;;7.57;3.50;;;;;;;;;;1051378;28;20028;-52
2023/02/24 00:36:23;;;;;;;6.80;2.67;;;;;;;;;;1051228;28;20028;-52
2023/02/24 00:36:54;;;;;;;6.40;3.10;;;;;;;;;;1051065;28;20273;-51
2023/02/24 00:37:25;;;;;;;7.23;3.10;;;;;;;;;;1051031;28;20122;-51
2023/02/24 00:37:56;;;;;;;8.25;3.28;;;;;;;;;;1050989;28;20298;-51
2023/02/24 00:38:30;;;;;;;6.47;3.20;;;;;;;;;;1051141;28;20028;-51
2023/02/24 00:39:08;;;;;;;6.80;2.80;;;;;;;;;;1050815;28;20016;-51
2023/02/24 00:39:40;;;;;;;3.72;2.42;;;;;;;;;;1051103;28;20073;-51
2023/02/24 00:40:11;;;;;;;8.15;3.20;;;;;;;;;;1051011;28;20161;-51
2023/02/24 00:40:45;;;;;;;5.88;2.83;;;;;;;;;;1050971;28;20027;-52
2023/02/24 00:41:21;;;;;;;7.25;3.03;;;;;;;;;;1051074;28;20095;-51
2023/02/24 00:41:52;;;;;;;8.75;3.30;;;;;;;;;;1047779;28;20028;-51
2023/02/24 00:42:23;;;;;;;7.80;2.67;;;;;;;;;;1051040;28;20047;-49
2023/02/24 00:42:54;;;;;;;7.97;3.17;;;;;;;;;;1051072;28;20315;-51
2023/02/24 00:43:25;;;;;;;7.85;3.10;;;;;;;;;;1050832;28;20262;-51
2023/02/24 00:43:57;;;;;;;6.60;2.77;;;;;;;;;;1051142;28;20032;-52
2023/02/24 00:44:28;;;;;;;5.70;2.75;;;;;;;;;;1051028;28;20284;-51
2023/02/24 00:45:06;;;;;;;6.45;2.90;;;;;;;;;;1050659;28;20552;-50
2023/02/24 00:45:38;;;;;;;5.80;2.97;;;;;;;;;;1051129;28;20020;-51
2023/02/24 00:46:11;;;;;;;7.30;3.15;;;;;;;;;;1051088;28;20731;-52
2023/02/24 00:46:44;;;;;;;6.75;3.10;;;;;;;;;;1050910;28;20020;-53
2023/02/24 00:47:15;;;;;;;6.15;2.95;;;;;;;;;;1047881;28;20033;-51
2023/02/24 00:47:46;;;;;;;7.13;2.85;;;;;;;;;;1046825;28;20030;-52
2023/02/24 00:48:17;;;;;;;6.03;2.87;;;;;;;;;;1046860;28;20071;-52
2023/02/24 00:48:48;;;;;;;5.82;3.28;;;;;;;;;;1048965;28;20263;-52
2023/02/24 00:49:19;;;;;;;6.40;3.03;;;;;;;;;;1051014;28;20053;-53
2023/02/24 00:49:50;;;;;;;5.85;3.03;;;;;;;;;;1051196;28;20058;-53
2023/02/24 00:50:23;;;;;;;6.05;2.45;;;;;;;;;;1050948;28;20032;-53
2023/02/24 00:50:54;;;;;;;7.93;3.00;;;;;;;;;;1051131;28;20443;-51
2023/02/24 00:51:26;;;;;;;7.53;3.15;;;;;;;;;;1050982;28;20032;-53
2023/02/24 00:51:57;;;;;;;5.57;2.33;;;;;;;;;;1051158;28;20081;-52
2023/02/24 00:52:28;;;;;;;7.07;2.65;;;;;;;;;;1046933;28;20040;-53
2023/02/24 00:52:59;;;;;;;8.20;2.97;;;;;;;;;;1046924;28;20332;-52
2023/02/24 00:53:30;;;;;;;7.05;2.83;;;;;;;;;;1047015;28;20031;-53
2023/02/24 00:54:01;;;;;;;5.50;2.73;;;;;;;;;;1049629;28;20082;-51
2023/02/24 00:54:35;;;;;;;6.75;2.60;;;;;;;;;;1050966;28;20708;-51
2023/02/24 00:55:13;;;;;;;6.47;2.63;;;;;;;;;;1050911;28;20236;-51
2023/02/24 00:55:44;;;;;;;8.30;2.63;;;;;;;;;;1050888;28;20501;-51
2023/02/24 00:56:15;;;;;;;6.47;2.58;;;;;;;;;;1051009;28;20134;-51
2023/02/24 00:56:47;;;;;;;8.20;2.85;;;;;;;;;;1050203;28;20225;-52
2023/02/24 00:57:20;;;;;;;6.57;2.60;;;;;;;;;;1050729;28;20060;-51
2023/02/24 00:57:51;;;;;;;7.22;2.70;;;;;;;;;;1051020;28;20103;-49
2023/02/24 00:58:21;;;;;;;7.57;3.20;;;;;;;;;;1050866;28;20028;-52
2023/02/24 00:58:53;;;;;;;7.45;2.53;;;;;;;;;;1050743;28;20287;-52
2023/02/24 00:59:24;;;;;;;3.92;2.60;;;;;;;;;;1051122;28;20831;-51
2023/02/24 00:59:57;;;;;;;5.03;2.55;;;;;;;;;;1051011;28;20434;-51
2023/02/24 01:00:29;;;;;;;8.13;3.05;;;;;;;;;;1050960;28;20016;-50
2023/02/24 01:01:01;;;;;;;6.80;2.67;;;;;;;;;;1050854;28;20107;-51
2023/02/24 01:01:32;;;;;;;6.32;3.00;;;;;;;;;;1051057;28;20024;-51
2023/02/24 01:02:05;;;;;;;6.25;2.60;;;;;;;;;;1050824;28;20363;-51
2023/02/24 01:02:37;;;;;;;6.55;2.75;;;;;;;;;;1050946;28;20020;-52
2023/02/24 01:03:08;;;;;;;5.43;2.30;;;;;;;;;;1051042;28;20477;-48
2023/02/24 01:03:40;;;;;;;5.18;2.92;;;;;;;;;;1050945;28;20045;-50
2023/02/24 01:04:11;;;;;;;5.60;2.38;;;;;;;;;;1050826;28;20634;-52
2023/02/24 01:04:43;;;;;;;7.80;3.28;;;;;;;;;;1050422;28;20020;-50
2023/02/24 01:05:14;;;;;;;5.22;2.42;;;;;;;;;;1050686;28;20024;-52
2023/02/24 01:05:45;;;;;;;4.78;2.75;;;;;;;;;;1044702;28;20031;-50
2023/02/24 01:06:19;;;;;;;5.43;2.80;;;;;;;;;;1042394;28;20602;-51
2023/02/24 01:06:51;;;;;;;5.97;2.72;;;;;;;;;;1042292;28;20259;-52
2023/02/24 01:07:22;;;;;;;6.57;2.70;;;;;;;;;;1044032;28;20104;-53
2023/02/24 01:07:53;;;;;;;5.70;2.50;;;;;;;;;;1051036;28;20020;-52
2023/02/24 01:08:24;;;;;;;5.20;2.80;;;;;;;;;;1050929;28;20349;-50
2023/02/24 01:08:56;;;;;;;8.13;3.00;;;;;;;;;;1051122;28;20024;-51
2023/02/24 01:09:28;;;;;;;5.60;2.47;;;;;;;;;;1051171;28;20082;-51
2023/02/24 01:09:59;;;;;;;5.38;2.28;;;;;;;;;;1051091;28;20036;-52
2023/02/24 01:10:33;;;;;;;5.93;2.25;;;;;;;;;;1051293;28;20020;-51
2023/02/24 01:12:49;;;;;;;4.88;2.53;;;;;;;;;;1049808;28;20063;-52
2023/02/24 01:13:20;;;;;;;6.47;2.70;;;;;;;;;;1050641;28;20027;-51
2023/02/24 01:13:51;;;;;;;5.87;2.37;;;;;;;;;;1050995;28;20039;-51
2023/02/24 01:14:23;;;;;;;5.28;2.70;;;;;;;;;;1050636;28;20266;-52
2023/02/24 01:14:54;;;;;;;5.32;2.38;;;;;;;;;;1050886;28;20032;-52
2023/02/24 01:15:25;;;;;;;4.87;2.40;;;;;;;;;;1051234;28;20024;-53
2023/02/24 01:16:01;;;;;;;5.87;2.30;;;;;;;;;;1050990;28;20811;-52
2023/02/24 01:16:33;;;;;;;5.57;2.38;;;;;;;;;;1051295;28;20260;-52
2023/02/24 01:17:04;;;;;;;7.63;2.78;;;;;;;;;;1051158;28;20433;-52
2023/02/24 01:17:36;;;;;;;7.47;2.53;;;;;;;;;;1051179;28;20098;-54
2023/02/24 01:18:09;;;;;;;6.40;2.45;;;;;;;;;;1050964;28;20023;-52
2023/02/24 01:18:41;;;;;;;5.97;2.80;;;;;;;;;;1051245;28;20024;-50
2023/02/24 01:19:12;;;;;;;9.52;2.97;;;;;;;;;;1051140;28;20020;-52
2023/02/24 01:19:43;;;;;;;5.70;2.80;;;;;;;;;;1051295;28;20024;-53
2023/02/24 01:20:17;;;;;;;7.57;2.97;;;;;;;;;;1051130;28;20303;-52
2023/02/24 01:20:48;;;;;;;7.78;2.63;;;;;;;;;;1050729;28;20413;-53
2023/02/24 01:21:20;;;;;;;5.57;2.45;;;;;;;;;;1051095;28;20344;-50
2023/02/24 01:21:53;;;;;;;5.88;2.45;;;;;;;;;;1051289;28;20050;-52
2023/02/24 01:22:24;;;;;;;6.93;2.40;;;;;;;;;;1051160;28;20031;-53
2023/02/24 01:22:56;;;;;;;5.53;3.05;;;;;;;;;;1051117;28;20406;-53
2023/02/24 01:23:27;;;;;;;4.18;2.10;;;;;;;;;;1051167;28;20082;-52
2023/02/24 01:23:58;;;;;;;6.57;2.80;;;;;;;;;;1051017;28;20028;-52
2023/02/24 01:24:36;;;;;;;8.13;2.70;;;;;;;;;;1051147;28;20028;-52
2023/02/24 01:25:08;;;;;;;6.72;2.90;;;;;;;;;;1051081;28;20041;-52
2023/02/24 01:25:38;;;;;;;5.05;2.30;;;;;;;;;;1051214;28;20031;-51
2023/02/24 01:26:09;;;;;;;4.70;2.50;;;;;;;;;;1051037;28;20028;-53
2023/02/24 01:26:41;;;;;;;5.55;2.58;;;;;;;;;;1051108;28;20262;-52
2023/02/24 01:27:13;;;;;;;5.72;2.60;;;;;;;;;;1051295;28;20023;-53
2023/02/24 01:27:44;;;;;;;5.88;2.67;;;;;;;;;;1051137;28;20031;-51
2023/02/24 01:28:15;;;;;;;6.53;2.65;;;;;;;;;;1049480;28;20031;-53
2023/02/24 01:28:46;;;;;;;5.80;2.70;;;;;;;;;;1050675;28;20107;-52
2023/02/24 01:29:18;;;;;;;7.88;2.58;;;;;;;;;;1051130;28;20024;-53
2023/02/24 01:29:49;;;;;;;6.00;2.25;;;;;;;;;;1051160;28;20107;-53
2023/02/24 01:30:20;;;;;;;5.50;2.53;;;;;;;;;;1051240;28;20360;-52
2023/02/24 01:30:51;;;;;;;6.82;2.92;;;;;;;;;;1051299;28;20541;-53
2023/02/24 01:31:22;;;;;;;6.47;2.72;;;;;;;;;;1051065;28;20028;-52
2023/02/24 01:31:56;;;;;;;6.30;2.75;;;;;;;;;;1051230;28;20036;-53
2023/02/24 01:32:30;;;;;;;4.70;2.67;;;;;;;;;;1051204;28;20418;-52
2023/02/24 01:33:01;;;;;;;5.07;2.38;;;;;;;;;;1050977;28;20016;-52
2023/02/24 01:33:36;;;;;;;4.85;2.65;;;;;;;;;;1051287;28;20024;-54
2023/02/24 01:34:09;;;;;;;9.60;2.67;;;;;;;;;;1051199;28;20091;-51
2023/02/24 01:34:41;;;;;;;5.85;2.33;;;;;;;;;;1050915;28;20558;-51
2023/02/24 01:35:13;;;;;;;5.28;2.53;;;;;;;;;;1051285;28;20468;-52
2023/02/24 01:35:44;;;;;;;6.68;2.50;;;;;;;;;;1051098;28;20016;-52
2023/02/24 01:36:17;;;;;;;5.03;2.50;;;;;;;;;;1050103;28;20597;-53
2023/02/24 01:36:48;;;;;;;5.55;2.80;;;;;;;;;;1046643;28;20025;-50
2023/02/24 01:37:19;;;;;;;6.03;2.63;;;;;;;;;;1046574;28;20027;-52
2023/02/24 01:37:52;;;;;;;4.50;2.70;;;;;;;;;;1046644;28;20028;-52
2023/02/24 01:38:23;;;;;;;6.07;2.95;;;;;;;;;;1050928;28;20145;-51
2023/02/24 01:38:54;;;;;;;4.03;2.10;;;;;;;;;;1051121;28;20253;-52
2023/02/24 01:39:25;;;;;;;5.80;2.40;;;;;;;;;;1051153;28;20693;-50
2023/02/24 01:39:55;;;;;;;5.55;2.97;;;;;;;;;;1050987;28;20365;-53
2023/02/24 01:40:27;;;;;;;4.90;2.43;;;;;;;;;;1051082;28;20024;-52
2023/02/24 01:40:58;;;;;;;4.93;2.80;;;;;;;;;;1050950;28;20274;-52
2023/02/24 01:41:30;;;;;;;6.38;2.30;;;;;;;;;;1051222;28;20016;-52
2023/02/24 01:42:03;;;;;;;3.50;2.63;;;;;;;;;;1050968;28;20450;-51
2023/02/24 01:42:34;;;;;;;6.85;2.80;;;;;;;;;;1051292;28;20136;-52
2023/02/24 01:43:07;;;;;;;5.38;2.38;;;;;;;;;;1050259;28;20035;-52
2023/02/24 01:43:58;;;;;;;5.95;2.38;;;;;;;;;;1051177;28;20024;-52
2023/02/24 01:44:31;;;;;;;7.97;2.80;;;;;;;;;;1051220;28;20020;-53
2023/02/24 01:45:05;;;;;;;3.88;2.25;;;;;;;;;;1050970;28;20054;-52
2023/02/24 01:45:38;;;;;;;4.68;2.35;;;;;;;;;;1051191;28;20027;-52
2023/02/24 01:46:12;;;;;;;4.25;2.15;;;;;;;;;;1051079;28;20021;-52
2023/02/24 01:46:47;;;;;;;5.25;2.28;;;;;;;;;;1050973;28;20081;-52
2023/02/24 01:47:19;;;;;;;5.95;2.40;;;;;;;;;;1050772;28;20024;-50
2023/02/24 01:47:51;;;;;;;3.92;2.22;;;;;;;;;;1051168;28;20497;-53
2023/02/24 01:48:23;;;;;;;4.60;2.30;;;;;;;;;;1051016;28;20095;-53
2023/02/24 01:48:57;;;;;;;4.53;2.30;;;;;;;;;;1051100;28;20028;-52
2023/02/24 01:49:37;;;;;;;5.45;2.38;;;;;;;;;;1051167;28;20027;-52
2023/02/24 01:50:09;;;;;;;4.35;2.35;;;;;;;;;;1051215;28;20547;-51
2023/02/24 01:50:40;;;;;;;4.72;2.00;;;;;;;;;;1050912;28;20024;-52
2023/02/24 01:51:11;;;;;;;8.80;3.00;;;;;;;;;;1051199;28;20093;-52
2023/02/24 01:51:45;;;;;;;5.82;2.15;;;;;;;;;;1051156;28;20028;-53
2023/02/24 01:52:19;;;;;;;3.95;2.05;;;;;;;;;;1050858;28;20095;-51
2023/02/24 01:52:54;;;;;;;5.28;1.88;;;;;;;;;;1051260;28;20020;-53
2023/02/24 01:53:25;;;;;;;6.35;2.30;;;;;;;;;;1051001;28;20018;-52
2023/02/24 01:53:56;;;;;;;6.13;2.20;;;;;;;;;;1050977;28;20022;-52
2023/02/24 01:54:30;;;;;;;6.70;2.50;;;;;;;;;;1051226;28;20015;-51
2023/02/24 01:55:01;;;;;;;5.10;2.00;;;;;;;;;;1051024;28;20435;-50
2023/02/24 01:55:35;;;;;;;3.95;2.05;;;;;;;;;;1051125;28;20012;-51
2023/02/24 01:56:06;;;;;;;4.25;1.98;;;;;;;;;;1051119;28;20653;-51
2023/02/24 01:56:40;;;;;;;5.30;2.30;;;;;;;;;;1051090;28;20019;-53
2023/02/24 01:57:15;;;;;;;5.75;2.15;;;;;;;;;;1051033;28;20076;-52
2023/02/24 01:57:48;;;;;;;5.03;2.00;;;;;;;;;;1049955;28;20427;-50
2023/02/24 01:58:29;;;;;;;3.55;1.88;;;;;;;;;;1046839;28;20012;-52
2023/02/24 01:59:00;;;;;;;6.05;2.53;;;;;;;;;;1048609;28;20019;-52
2023/02/24 01:59:36;;;;;;;5.40;1.90;;;;;;;;;;1051336;28;20478;-51
2023/02/24 02:00:30;;;;;;;5.72;2.35;;;;;;;;;;1050988;28;20012;-52
2023/02/24 02:01:07;;;;;;;4.43;2.15;;;;;;;;;;1050881;28;20833;-51
2023/02/24 02:01:41;;;;;;;5.30;2.28;;;;;;;;;;1051205;28;20465;-52
2023/02/24 02:02:13;;;;;;;5.25;2.50;;;;;;;;;;1050883;28;20012;-52
2023/02/24 02:02:46;;;;;;;5.72;2.50;;;;;;;;;;1051008;28;20467;-52
2023/02/24 02:03:26;;;;;;;4.93;2.38;;;;;;;;;;1050995;28;20020;-51
2023/02/24 02:04:01;;;;;;;3.65;1.83;;;;;;;;;;1050905;28;20020;-51
2023/02/24 02:04:50;;;;;;;4.95;1.98;;;;;;;;;;1051119;28;20080;-53
2023/02/24 02:05:21;;;;;;;5.30;2.30;;;;;;;;;;1050971;28;20095;-51
2023/02/24 02:05:54;;;;;;;8.10;2.43;;;;;;;;;;1050980;28;20031;-52
2023/02/24 02:06:26;;;;;;;6.50;2.50;;;;;;;;;;1051040;28;20242;-52
2023/02/24 02:06:57;;;;;;;6.15;2.05;;;;;;;;;;1051238;28;20103;-52
2023/02/24 02:07:29;;;;;;;4.47;2.25;;;;;;;;;;1050828;28;20012;-51
2023/02/24 02:08:00;;;;;;;4.57;2.28;;;;;;;;;;1051036;28;20776;-50
2023/02/24 02:08:32;;;;;;;5.03;2.00;;;;;;;;;;1051071;28;20016;-51
2023/02/24 02:09:03;;;;;;;4.45;1.63;;;;;;;;;;1050935;28;20522;-53
2023/02/24 02:09:34;;;;;;;5.20;2.00;;;;;;;;;;1051071;28;20012;-52
2023/02/24 02:10:06;;;;;;;4.90;1.83;;;;;;;;;;1050645;28;20507;-53
2023/02/24 02:10:38;;;;;;;4.80;1.98;;;;;;;;;;1050843;28;20073;-51
2023/02/24 02:11:10;;;;;;;5.28;2.30;;;;;;;;;;1051110;28;20019;-52
2023/02/24 02:11:47;;;;;;;5.50;2.17;;;;;;;;;;1051032;28;20020;-51
2023/02/24 02:12:19;;;;;;;6.28;2.15;;;;;;;;;;1050415;28;20031;-53
2023/02/24 02:12:50;;;;;;;3.85;2.30;;;;;;;;;;1051031;28;20016;-52
2023/02/24 02:13:21;;;;;;;6.72;2.35;;;;;;;;;;1051100;28;20463;-51
2023/02/24 02:13:52;;;;;;;6.00;2.25;;;;;;;;;;1051138;28;20447;-51
2023/02/24 02:14:25;;;;;;;4.25;2.05;;;;;;;;;;1051013;28;20099;-52
2023/02/24 02:14:58;;;;;;;7.15;2.10;;;;;;;;;;1051065;28;20055;-52
2023/02/24 02:15:29;;;;;;;4.05;1.73;;;;;;;;;;1051211;28;20063;-52
2023/02/24 02:16:06;;;;;;;4.95;2.15;;;;;;;;;;1050762;28;20030;-52
2023/02/24 02:17:01;;;;;;;4.60;1.80;;;;;;;;;;1050895;28;20020;-53
2023/02/24 02:17:32;;;;;;;5.55;2.45;;;;;;;;;;1050969;28;20004;-52
2023/02/24 02:18:03;;;;;;;6.53;2.43;;;;;;;;;;1050542;28;20016;-52
2023/02/24 02:18:55;;;;;;;5.15;2.17;;;;;;;;;;1051238;28;20256;-51
2023/02/24 02:19:29;;;;;;;6.50;2.05;;;;;;;;;;1050897;28;20099;-52
2023/02/24 02:20:14;;;;;;;7.63;2.35;;;;;;;;;;1050881;28;20339;-53
2023/02/24 02:20:55;;;;;;;5.07;1.98;;;;;;;;;;1050472;28;20059;-52
2023/02/24 02:21:35;;;;;;;3.38;1.45;;;;;;;;;;1051148;28;20019;-53
2023/02/24 02:22:22;;;;;;;5.57;2.00;;;;;;;;;;1050899;28;20016;-51
2023/02/24 02:22:53;;;;;;;4.03;1.70;;;;;;;;;;1050957;28;20522;-52
2023/02/24 02:23:43;;;;;;;5.47;1.73;;;;;;;;;;1051101;28;20459;-51
2023/02/24 02:24:16;;;;;;;5.78;1.85;;;;;;;;;;1050990;28;20293;-51
2023/02/24 02:24:49;;;;;;;5.93;1.98;;;;;;;;;;1051204;28;20020;-53
2023/02/24 02:25:24;;;;;;;4.57;2.42;;;;;;;;;;1050816;28;20038;-53
2023/02/24 02:26:17;;;;;;;5.50;2.15;;;;;;;;;;1051852;28;20020;-52
2023/02/24 02:27:01;;;;;;;5.72;1.92;;;;;;;;;;1047675;28;20031;-52
2023/02/24 02:27:38;;;;;;;5.60;2.40;;;;;;;;;;1047785;28;20015;-53
2023/02/24 02:28:30;;;;;;;5.45;2.50;;;;;;;;;;1051499;28;20024;-53
2023/02/24 02:29:20;;;;;;;5.15;2.20;;;;;;;;;;1047759;28;20032;-52
2023/02/24 02:30:08;;;;;;;5.05;2.20;;;;;;;;;;1051463;28;20024;-52
2023/02/24 02:30:57;;;;;;;4.43;1.95;;;;;;;;;;1050420;28;20091;-53
2023/02/24 02:31:49;;;;;;;6.05;2.00;;;;;;;;;;1051764;28;20827;-52
2023/02/24 02:32:38;;;;;;;4.10;1.98;;;;;;;;;;1047553;28;20020;-52
2023/02/24 02:33:31;;;;;;;5.30;1.90;;;;;;;;;;1047645;28;20031;-54
2023/02/24 02:34:08;;;;;;;4.35;2.03;;;;;;;;;;1048260;28;20017;-52
2023/02/24 02:34:45;;;;;;;5.97;2.25;;;;;;;;;;1051050;28;20073;-52
2023/02/24 02:35:18;;;;;;;4.97;1.73;;;;;;;;;;1051914;28;20073;-53
2023/02/24 02:35:53;;;;;;;5.38;2.17;;;;;;;;;;1051822;28;20024;-52
2023/02/24 02:36:42;;;;;;;5.00;2.35;;;;;;;;;;1051717;28;20027;-53
2023/02/24 02:37:31;;;;;;;4.97;1.77;;;;;;;;;;1051886;28;20016;-53
2023/02/24 02:38:10;;;;;;;6.32;2.30;;;;;;;;;;1051541;28;20039;-53
2023/02/24 02:38:41;;;;;;;5.20;2.10;;;;;;;;;;1051673;28;20573;-51
2023/02/24 02:39:21;;;;;;;5.90;2.35;;;;;;;;;;1051948;28;20012;-52
2023/02/24 02:40:22;;;;;;;3.95;1.75;;;;;;;;;;1051832;28;20031;-52
2023/02/24 02:41:13;;;;;;;3.97;2.10;;;;;;;;;;1047629;28;20436;-52
2023/02/24 02:42:00;;;;;;;5.75;2.00;;;;;;;;;;1047482;28;20033;-52
2023/02/24 02:42:37;;;;;;;5.20;1.95;;;;;;;;;;1051632;28;20024;-53
2023/02/24 02:43:16;;;;;;;6.95;2.67;;;;;;;;;;1051684;28;20020;-52
2023/02/24 02:43:51;;;;;;;5.70;2.30;;;;;;;;;;1051612;28;20019;-54
2023/02/24 02:44:26;;;;;;;4.07;2.10;;;;;;;;;;1047448;28;20017;-51
2023/02/24 02:45:06;;;;;;;7.00;2.50;;;;;;;;;;1047460;28;20038;-52
2023/02/24 02:45:46;;;;;;;4.97;2.15;;;;;;;;;;1048921;28;20020;-52
2023/02/24 02:46:33;;;;;;;4.40;2.10;;;;;;;;;;1051596;28;20058;-53
2023/02/24 02:47:13;;;;;;;5.00;2.40;;;;;;;;;;1047581;28;20013;-50
2023/02/24 02:47:52;;;;;;;3.25;1.92;;;;;;;;;;1047555;28;20052;-52
2023/02/24 02:48:33;;;;;;;5.75;2.10;;;;;;;;;;1047478;28;20031;-53
2023/02/24 02:49:09;;;;;;;6.28;2.33;;;;;;;;;;1049100;28;20032;-52
2023/02/24 02:49:42;;;;;;;4.65;2.03;;;;;;;;;;1051519;28;20020;-50
2023/02/24 02:50:19;;;;;;;4.20;2.17;;;;;;;;;;1051763;28;20024;-53
2023/02/24 02:50:54;;;;;;;5.78;2.47;;;;;;;;;;1051790;28;20027;-52
2023/02/24 02:51:39;;;;;;;4.88;2.42;;;;;;;;;;1051516;28;20035;-53
2023/02/24 02:52:16;;;;;;;4.93;2.00;;;;;;;;;;1051811;28;20019;-51
2023/02/24 02:52:57;;;;;;;4.50;2.00;;;;;;;;;;1047630;28;20016;-53
2023/02/24 02:53:30;;;;;;;4.30;2.17;;;;;;;;;;1047550;28;20016;-52
2023/02/24 02:54:04;;;;;;;4.82;2.15;;;;;;;;;;1050865;28;20020;-52
2023/02/24 02:54:48;;;;;;;6.38;1.92;;;;;;;;;;1051736;28;20103;-53
2023/02/24 02:55:35;;;;;;;7.55;2.10;;;;;;;;;;1051902;28;20713;-53
2023/02/24 02:56:12;;;;;;;4.40;2.35;;;;;;;;;;1051660;28;20024;-53
2023/02/24 02:56:46;;;;;;;6.03;2.67;;;;;;;;;;1051564;28;20016;-53
2023/02/24 02:57:19;;;;;;;6.32;2.33;;;;;;;;;;1051781;28;20016;-53
2023/02/24 02:57:52;;;;;;;4.72;2.08;;;;;;;;;;1051638;28;20027;-52
2023/02/24 02:58:26;;;;;;;6.00;2.65;;;;;;;;;;1051646;28;20410;-52
2023/02/24 02:58:59;;;;;;;5.68;2.42;;;;;;;;;;1051688;28;20035;-52
2023/02/24 02:59:32;;;;;;;4.22;2.10;;;;;;;;;;1051696;28;20106;-53
2023/02/24 03:00:09;;;;;;;5.93;2.10;;;;;;;;;;1051597;28;20027;-50
2023/02/24 03:00:42;;;;;;;4.63;2.28;;;;;;;;;;1051776;28;20017;-53
2023/02/24 03:01:17;;;;;;;5.38;1.80;;;;;;;;;;1051456;28;20052;-52
2023/02/24 03:01:49;;;;;;;3.67;1.77;;;;;;;;;;1051668;28;20694;-52
2023/02/24 03:02:26;;;;;;;7.40;2.70;;;;;;;;;;1051686;28;20024;-52
2023/02/24 03:03:02;;;;;;;6.07;2.28;;;;;;;;;;1051474;28;20123;-52
2023/02/24 03:03:44;;;;;;;5.75;2.67;;;;;;;;;;1051784;28;20022;-52
2023/02/24 03:04:17;;;;;;;6.18;2.42;;;;;;;;;;1050810;28;20016;-52
2023/02/24 03:04:51;;;;;;;6.28;2.47;;;;;;;;;;1051701;28;20024;-52
2023/02/24 03:05:28;;;;;;;6.75;2.45;;;;;;;;;;1051696;28;20146;-51
2023/02/24 03:06:02;;;;;;;7.32;2.17;;;;;;;;;;1051256;28;20095;-52
2023/02/24 03:06:37;;;;;;;5.13;3.10;;;;;;;;;;1051661;28;20111;-52
2023/02/24 03:07:09;;;;;;;4.75;2.05;;;;;;;;;;1051680;28;20070;-53
2023/02/24 03:07:44;;;;;;;5.05;2.25;;;;;;;;;;1051566;28;20020;-53
2023/02/24 03:08:18;;;;;;;5.68;2.35;;;;;;;;;;1051559;28;20021;-51
2023/02/24 03:09:18;;;;;;;6.40;2.55;;;;;;;;;;1051774;28;20096;-52
2023/02/24 03:09:55;;;;;;;5.72;1.90;;;;;;;;;;1051464;28;20016;-52
2023/02/24 03:10:28;;;;;;;5.57;1.90;;;;;;;;;;1051435;28;20051;-50
2023/02/24 03:11:00;;;;;;;3.28;1.73;;;;;;;;;;1051641;28;20165;-51
2023/02/24 03:11:32;;;;;;;6.35;2.33;;;;;;;;;;1051462;28;20016;-52
2023/02/24 03:12:08;;;;;;;5.22;2.15;;;;;;;;;;1051590;28;20020;-51
2023/02/24 03:12:40;;;;;;;3.55;1.85;;;;;;;;;;1051463;28;20759;-52
2023/02/24 03:13:12;;;;;;;4.45;2.05;;;;;;;;;;1051552;28;20777;-51
2023/02/24 03:13:44;;;;;;;3.95;2.25;;;;;;;;;;1051601;28;20020;-52
2023/02/24 03:14:17;;;;;;;7.47;2.25;;;;;;;;;;1051635;28;20070;-54
2023/02/24 03:14:50;;;;;;;5.70;2.03;;;;;;;;;;1051510;28;20107;-53
2023/02/24 03:15:23;;;;;;;5.10;2.13;;;;;;;;;;1051602;28;20491;-53
2023/02/24 03:15:54;;;;;;;5.68;2.00;;;;;;;;;;1051606;28;20025;-52
2023/02/24 03:16:26;;;;;;;6.53;2.65;;;;;;;;;;1051459;28;20024;-52
2023/02/24 03:16:58;;;;;;;5.22;2.00;;;;;;;;;;1051567;28;20032;-52
2023/02/24 03:17:30;;;;;;;8.15;2.72;;;;;;;;;;1051678;28;20032;-52
2023/02/24 03:18:09;;;;;;;4.93;2.28;;;;;;;;;;1051456;28;20020;-52
2023/02/24 03:18:39;;;;;;;;;;;;;;;;;;1051652;28;20024;-52
2023/02/24 03:19:13;;;;;;;5.27;1.80;;;;;;;;;;1051746;28;20006;-52
2023/02/24 03:19:45;;;;;;;6.03;2.35;;;;;;;;;;1051356;28;20107;-51
2023/02/24 03:20:21;;;;;;;3.13;1.98;;;;;;;;;;1051755;28;20028;-52
2023/02/24 03:20:56;;;;;;;5.05;2.03;;;;;;;;;;1051075;28;20085;-49
2023/02/24 03:21:36;;;;;;;5.82;2.15;;;;;;;;;;1051485;28;20110;-52
2023/02/24 03:22:11;;;;;;;5.95;2.67;;;;;;;;;;1051224;28;20042;-51
2023/02/24 03:22:45;;;;;;;6.07;2.42;;;;;;;;;;1051237;28;20020;-52
2023/02/24 03:23:24;;;;;;;4.28;2.10;;;;;;;;;;1048599;28;20418;-52
2023/02/24 03:23:55;;;;;;;5.15;2.05;;;;;;;;;;1047194;28;20166;-53
2023/02/24 03:24:26;;;;;;;5.78;2.00;;;;;;;;;;1047443;28;20511;-52
2023/02/24 03:24:57;;;;;;;5.25;2.22;;;;;;;;;;1049652;28;20034;-52
2023/02/24 03:25:37;;;;;;;6.15;2.58;;;;;;;;;;1051689;28;20035;-51
2023/02/24 03:26:15;;;;;;;5.10;2.40;;;;;;;;;;1051548;28;20032;-52
2023/02/24 03:26:50;;;;;;;4.35;1.92;;;;;;;;;;1051465;28;20032;-53
2023/02/24 03:27:34;;;;;;;7.30;2.42;;;;;;;;;;1051481;28;20042;-53
2023/02/24 03:28:11;;;;;;;6.00;2.38;;;;;;;;;;1051308;28;20024;-52